createdAt,value
2016-12-18T00:00:34.140Z,85.41
2016-12-18T00:01:34.130Z,85.88
2016-12-18T00:02:34.113Z,85.97
2016-12-18T00:03:34.102Z,85.69
2016-12-18T00:04:34.089Z,85.5
2016-12-18T00:05:34.075Z,85.97
2016-12-18T00:06:34.061Z,85.97
2016-12-18T00:07:34.050Z,85.97
2016-12-18T00:08:34.039Z,85.78
2016-12-18T00:09:34.024Z,85.97
2016-12-18T00:10:34.014Z,86.07
2016-12-18T00:11:33.999Z,86.07
2016-12-18T00:12:33.987Z,86.07
2016-12-18T00:13:33.974Z,85.78
2016-12-18T00:14:33.960Z,85.78
2016-12-18T00:15:33.947Z,85.78
2016-12-18T00:16:33.934Z,86.35
2016-12-18T00:17:33.926Z,86.35
2016-12-18T00:18:33.907Z,86.26
2016-12-18T00:19:33.897Z,86.16
2016-12-18T00:20:33.882Z,86.07
2016-12-18T00:21:33.872Z,86.35
2016-12-18T00:22:33.860Z,86.55
2016-12-18T00:23:33.848Z,86.64
2016-12-18T00:24:33.835Z,86.45
2016-12-18T00:25:33.821Z,86.83
2016-12-18T00:26:33.806Z,86.83
2016-12-18T00:27:33.793Z,86.83
2016-12-18T00:28:33.782Z,86.35
2016-12-18T00:29:33.768Z,86.74
2016-12-18T00:30:33.757Z,86.45
2016-12-18T00:31:33.745Z,86.74
2016-12-18T00:32:33.737Z,86.83
2016-12-18T00:33:33.718Z,86.64
2016-12-18T00:34:33.705Z,86.64
2016-12-18T00:35:33.692Z,87.02
2016-12-18T00:36:33.680Z,86.74
2016-12-18T00:37:33.666Z,87.4
2016-12-18T00:38:33.656Z,87.21
2016-12-18T00:39:33.643Z,87.21
2016-12-18T00:40:33.632Z,87.12
2016-12-18T00:41:33.616Z,87.4
2016-12-18T00:42:33.601Z,87.68
2016-12-18T00:43:33.901Z,87.59
2016-12-18T00:44:33.578Z,87.59
2016-12-18T00:45:33.569Z,87.4
2016-12-18T00:46:33.552Z,87.87
2016-12-18T00:47:33.538Z,88.25
2016-12-18T00:48:33.527Z,88.16
2016-12-18T00:49:33.514Z,88.06
2016-12-18T00:50:33.503Z,88.06
2016-12-18T00:51:33.489Z,88.63
2016-12-18T00:52:33.475Z,88.92
2016-12-18T00:53:33.466Z,88.82
2016-12-18T00:54:33.451Z,88.73
2016-12-18T00:55:33.436Z,88.54
2016-12-18T00:56:33.426Z,88.63
2016-12-18T00:57:33.414Z,88.73
2016-12-18T00:58:33.400Z,88.82
2016-12-18T00:59:33.388Z,88.54
2016-12-18T01:00:33.372Z,88.73
2016-12-18T01:01:33.363Z,88.63
2016-12-18T01:02:33.348Z,88.16
2016-12-18T01:03:33.335Z,88.82
2016-12-18T01:04:33.323Z,88.82
2016-12-18T01:05:33.314Z,88.92
2016-12-18T01:06:33.303Z,88.63
2016-12-18T01:07:33.287Z,88.44
2016-12-18T01:08:33.272Z,88.35
2016-12-18T01:09:33.259Z,88.16
2016-12-18T01:10:33.247Z,88.16
2016-12-18T01:11:33.235Z,88.06
2016-12-18T01:12:33.225Z,88.25
2016-12-18T01:13:33.209Z,88.63
2016-12-18T01:14:33.197Z,88.63
2016-12-18T01:15:33.186Z,88.82
2016-12-18T01:16:33.171Z,89.01
2016-12-18T01:17:33.158Z,89.29
2016-12-18T01:18:33.145Z,89.29
2016-12-18T01:19:33.135Z,89.01
2016-12-18T01:20:33.121Z,89.39
2016-12-18T01:21:33.106Z,89.11
2016-12-18T01:22:33.095Z,89.2
2016-12-18T01:23:33.083Z,89.86
2016-12-18T01:24:33.070Z,90.05
2016-12-18T01:25:33.057Z,89.58
2016-12-18T01:26:33.044Z,89.67
2016-12-18T01:27:33.033Z,89.96
2016-12-18T01:28:33.321Z,89.77
2016-12-18T01:29:33.006Z,90.24
2016-12-18T01:30:32.995Z,89.77
2016-12-18T01:31:32.982Z,89.77
2016-12-18T01:32:32.971Z,89.96
2016-12-18T01:33:32.958Z,90.05
2016-12-18T01:34:32.947Z,89.86
2016-12-18T01:35:32.932Z,89.86
2016-12-18T01:36:32.921Z,89.86
2016-12-18T01:37:32.906Z,90.15
2016-12-18T01:38:32.892Z,90.05
2016-12-18T01:39:32.880Z,90.24
2016-12-18T01:40:32.868Z,90.05
2016-12-18T01:41:32.857Z,89.67
2016-12-18T01:42:33.145Z,90.05
2016-12-18T01:43:32.833Z,89.86
2016-12-18T01:44:32.819Z,89.96
2016-12-18T01:45:32.805Z,90.24
2016-12-18T01:46:32.792Z,89.58
2016-12-18T01:47:32.780Z,89.86
2016-12-18T01:48:32.767Z,89.67
2016-12-18T01:49:32.755Z,90.24
2016-12-18T01:50:32.741Z,90.24
2016-12-18T01:51:32.729Z,89.96
2016-12-18T01:52:32.718Z,90.43
2016-12-18T01:53:32.705Z,89.96
2016-12-18T01:54:32.697Z,89.86
2016-12-18T01:55:32.678Z,90.53
2016-12-18T01:56:32.669Z,89.96
2016-12-18T01:57:32.659Z,89.77
2016-12-18T01:58:32.643Z,90.62
2016-12-18T01:59:32.629Z,89.86
2016-12-18T02:00:32.619Z,90.15
2016-12-18T02:01:32.605Z,90.43
2016-12-18T02:02:32.594Z,90.24
2016-12-18T02:03:32.580Z,89.48
2016-12-18T02:04:32.570Z,90.15
2016-12-18T02:05:32.556Z,90.43
2016-12-18T02:06:32.544Z,89.96
2016-12-18T02:07:32.530Z,89.96
2016-12-18T02:08:32.519Z,90.15
2016-12-18T02:09:32.506Z,90.34
2016-12-18T02:10:32.497Z,90.53
2016-12-18T02:11:32.480Z,90.43
2016-12-18T02:12:32.467Z,90.72
2016-12-18T02:13:32.457Z,90.81
2016-12-18T02:14:32.443Z,90.53
2016-12-18T02:15:32.431Z,90.62
2016-12-18T02:16:32.418Z,90.81
2016-12-18T02:17:32.406Z,90.62
2016-12-18T02:18:32.392Z,90.53
2016-12-18T02:19:32.380Z,90.53
2016-12-18T02:20:32.369Z,90.62
2016-12-18T02:21:32.357Z,90.62
2016-12-18T02:22:32.342Z,90.53
2016-12-18T02:23:32.330Z,90.34
2016-12-18T02:24:32.320Z,90.67
2016-12-18T02:25:32.306Z,90.48
2016-12-18T02:26:32.293Z,90.57
2016-12-18T02:27:32.280Z,90.29
2016-12-18T02:28:32.269Z,90.48
2016-12-18T02:29:32.258Z,90.19
2016-12-18T02:30:32.245Z,89.91
2016-12-18T02:31:32.235Z,90.38
2016-12-18T02:32:32.219Z,90.38
2016-12-18T02:33:32.208Z,90.19
2016-12-18T02:34:32.194Z,90.1
2016-12-18T02:35:32.184Z,90.48
2016-12-18T02:36:32.169Z,90.1
2016-12-18T02:37:32.157Z,90.1
2016-12-18T02:38:32.145Z,90.19
2016-12-18T02:39:32.133Z,89.72
2016-12-18T02:40:32.120Z,90
2016-12-18T02:41:32.411Z,90
2016-12-18T02:42:32.098Z,89.91
2016-12-18T02:43:32.087Z,89.81
2016-12-18T02:44:32.072Z,89.72
2016-12-18T02:45:32.059Z,89.72
2016-12-18T02:46:32.049Z,90
2016-12-18T02:47:32.038Z,90.29
2016-12-18T02:48:32.025Z,89.62
2016-12-18T02:49:32.011Z,90.38
2016-12-18T02:50:31.999Z,90.1
2016-12-18T02:51:31.987Z,90.19
2016-12-18T02:52:31.974Z,89.91
2016-12-18T02:53:31.962Z,90.67
2016-12-18T02:54:32.259Z,90.57
2016-12-18T02:55:31.935Z,90.57
2016-12-18T02:56:31.924Z,90.57
2016-12-18T02:57:31.914Z,90.57
2016-12-18T02:58:31.904Z,90.57
2016-12-18T02:59:31.889Z,90.57
2016-12-18T03:00:31.883Z,90.57
2016-12-18T03:01:31.864Z,90.48
2016-12-18T03:02:31.852Z,90.57
2016-12-18T03:03:31.839Z,90.76
2016-12-18T03:04:31.827Z,90.57
2016-12-18T03:05:31.816Z,90.57
2016-12-18T03:06:31.802Z,90.76
2016-12-18T03:07:31.792Z,91.05
2016-12-18T03:08:31.780Z,90.48
2016-12-18T03:09:31.766Z,90.57
2016-12-18T03:10:31.753Z,90.48
2016-12-18T03:11:31.742Z,90.48
2016-12-18T03:12:31.730Z,90.48
2016-12-18T03:13:31.718Z,90.48
2016-12-18T03:14:31.704Z,90.48
2016-12-18T03:15:31.694Z,90.76
2016-12-18T03:16:31.680Z,90.76
2016-12-18T03:17:31.669Z,90.76
2016-12-18T03:18:31.656Z,90.57
2016-12-18T03:19:31.645Z,90.57
2016-12-18T03:20:31.633Z,90.48
2016-12-18T03:21:31.620Z,90.57
2016-12-18T03:22:31.607Z,90.76
2016-12-18T03:23:31.595Z,90.57
2016-12-18T03:24:31.583Z,90.57
2016-12-18T03:25:31.571Z,90.48
2016-12-18T03:26:31.559Z,90.57
2016-12-18T03:27:31.548Z,90.38
2016-12-18T03:28:31.533Z,90.67
2016-12-18T03:29:31.524Z,90.57
2016-12-18T03:30:31.512Z,90.38
2016-12-18T03:31:31.497Z,90.86
2016-12-18T03:32:31.487Z,90.48
2016-12-18T03:33:31.474Z,90.48
2016-12-18T03:34:31.463Z,90.76
2016-12-18T03:35:31.454Z,90.76
2016-12-18T03:36:31.470Z,90.38
2016-12-18T03:37:31.425Z,90.48
2016-12-18T03:38:31.416Z,90.57
2016-12-18T03:39:31.402Z,90.48
2016-12-18T03:40:31.389Z,90.57
2016-12-18T03:41:31.377Z,90.38
2016-12-18T03:42:31.366Z,90.19
2016-12-18T03:43:31.353Z,90.67
2016-12-18T03:44:31.341Z,90.48
2016-12-18T03:45:31.337Z,90.48
2016-12-18T03:46:31.316Z,90.76
2016-12-18T03:47:31.306Z,90.95
2016-12-18T03:48:31.292Z,91.24
2016-12-18T03:49:31.282Z,91.42
2016-12-18T03:50:31.270Z,91.33
2016-12-18T03:51:31.256Z,91.8
2016-12-18T03:52:31.245Z,91.33
2016-12-18T03:53:31.233Z,91.71
2016-12-18T03:54:31.219Z,92.28
2016-12-18T03:55:31.208Z,92.28
2016-12-18T03:56:31.198Z,92.47
2016-12-18T03:57:31.184Z,92.47
2016-12-18T03:58:31.172Z,92.85
2016-12-18T03:59:31.160Z,92.85
2016-12-18T04:00:31.147Z,93.13
2016-12-18T04:01:31.136Z,93.23
2016-12-18T04:02:31.124Z,93.13
2016-12-18T04:03:31.112Z,93.41
2016-12-18T04:04:31.099Z,93.32
2016-12-18T04:05:31.089Z,93.23
2016-12-18T04:06:31.076Z,93.13
2016-12-18T04:07:31.065Z,93.04
2016-12-18T04:08:31.051Z,93.41
2016-12-18T04:09:31.039Z,93.41
2016-12-18T04:10:31.027Z,93.8
2016-12-18T04:11:31.015Z,93.8
2016-12-18T04:12:31.003Z,93.51
2016-12-18T04:13:30.992Z,93.7
2016-12-18T04:14:30.981Z,93.89
2016-12-18T04:15:30.971Z,94.08
2016-12-18T04:16:30.953Z,94.18
2016-12-18T04:17:30.944Z,94.56
2016-12-18T04:18:30.931Z,94.18
2016-12-18T04:19:30.917Z,94.56
2016-12-18T04:20:30.906Z,94.37
2016-12-18T04:21:30.894Z,94.84
2016-12-18T04:22:30.881Z,94.65
2016-12-18T04:23:30.870Z,94.56
2016-12-18T04:24:30.858Z,94.56
2016-12-18T04:25:30.845Z,94.27
2016-12-18T04:26:30.833Z,94.46
2016-12-18T04:27:30.821Z,95.22
2016-12-18T04:28:30.810Z,95.03
2016-12-18T04:29:30.797Z,94.74
2016-12-18T04:30:30.786Z,95.12
2016-12-18T04:31:30.772Z,95.12
2016-12-18T04:32:30.760Z,95.31
2016-12-18T04:33:30.750Z,95.12
2016-12-18T04:34:30.737Z,94.46
2016-12-18T04:35:30.727Z,94.37
2016-12-18T04:36:30.714Z,94.74
2016-12-18T04:37:30.701Z,95.22
2016-12-18T04:38:30.690Z,94.93
2016-12-18T04:39:30.679Z,95.79
2016-12-18T04:40:30.666Z,95.5
2016-12-18T04:41:30.656Z,95.5
2016-12-18T04:42:30.643Z,95.6
2016-12-18T04:43:30.628Z,95.69
2016-12-18T04:44:30.619Z,95.5
2016-12-18T04:45:30.603Z,95.41
2016-12-18T04:46:30.592Z,95.6
2016-12-18T04:47:30.581Z,95.41
2016-12-18T04:48:30.567Z,95.98
2016-12-18T04:49:30.557Z,96.36
2016-12-18T04:50:30.545Z,96.08
2016-12-18T04:51:30.534Z,96.17
2016-12-18T04:52:30.522Z,97.02
2016-12-18T04:53:30.510Z,96.64
2016-12-18T04:54:30.500Z,96.92
2016-12-18T04:55:30.485Z,96.64
2016-12-18T04:56:30.473Z,96.92
2016-12-18T04:57:30.459Z,96.83
2016-12-18T04:58:30.448Z,96.73
2016-12-18T04:59:30.440Z,96.83
2016-12-18T05:00:30.423Z,96.45
2016-12-18T05:01:30.411Z,96.73
2016-12-18T05:02:30.399Z,96.73
2016-12-18T05:03:30.384Z,97.12
2016-12-18T05:04:30.378Z,96.83
2016-12-18T05:05:30.364Z,97.12
2016-12-18T05:06:30.351Z,96.73
2016-12-18T05:07:30.341Z,96.83
2016-12-18T05:08:30.327Z,96.64
2016-12-18T05:09:30.316Z,97.12
2016-12-18T05:10:30.304Z,97.02
2016-12-18T05:11:30.292Z,96.64
2016-12-18T05:12:30.280Z,96.64
2016-12-18T05:13:30.269Z,96.92
2016-12-18T05:14:30.255Z,97.31
2016-12-18T05:15:30.245Z,96.83
2016-12-18T05:16:30.231Z,96.92
2016-12-18T05:17:30.218Z,96.83
2016-12-18T05:18:30.208Z,96.92
2016-12-18T05:19:30.195Z,97.12
2016-12-18T05:20:30.186Z,96.73
2016-12-18T05:21:30.173Z,96.73
2016-12-18T05:22:30.160Z,96.83
2016-12-18T05:23:30.147Z,96.83
2016-12-18T05:24:30.137Z,96.83
2016-12-18T05:25:30.123Z,96.73
2016-12-18T05:26:30.110Z,96.83
2016-12-18T05:27:30.104Z,96.73
2016-12-18T05:28:30.085Z,96.64
2016-12-18T05:29:30.075Z,96.73
2016-12-18T05:30:30.064Z,96.73
2016-12-18T05:31:30.053Z,96.83
2016-12-18T05:32:30.040Z,96.73
2016-12-18T05:33:30.029Z,96.83
2016-12-18T05:34:30.017Z,96.73
2016-12-18T05:35:30.003Z,97.02
2016-12-18T05:36:29.990Z,96.97
2016-12-18T05:37:29.979Z,96.64
2016-12-18T05:38:29.968Z,96.73
2016-12-18T05:39:29.955Z,96.64
2016-12-18T05:40:29.942Z,96.92
2016-12-18T05:41:29.933Z,96.83
2016-12-18T05:42:29.955Z,96.83
2016-12-18T05:43:29.909Z,96.83
2016-12-18T05:44:29.897Z,97.02
2016-12-18T05:45:29.886Z,96.5
2016-12-18T05:46:29.874Z,96.64
2016-12-18T05:47:29.859Z,96.64
2016-12-18T05:48:29.849Z,96.55
2016-12-18T05:49:29.838Z,96.55
2016-12-18T05:50:29.824Z,96.26
2016-12-18T05:51:29.813Z,96.36
2016-12-18T05:52:29.832Z,96.64
2016-12-18T05:53:29.788Z,96.64
2016-12-18T05:54:29.779Z,96.83
2016-12-18T05:55:29.765Z,96.73
2016-12-18T05:56:29.752Z,96.55
2016-12-18T05:57:29.741Z,96.36
2016-12-18T05:58:29.730Z,96.36
2016-12-18T05:59:29.718Z,96.73
2016-12-18T06:00:29.704Z,96.73
2016-12-18T06:01:29.693Z,96.92
2016-12-18T06:02:29.681Z,97.07
2016-12-18T06:03:29.668Z,96.5
2016-12-18T06:04:29.657Z,96.55
2016-12-18T06:05:29.645Z,96.69
2016-12-18T06:06:29.634Z,97.02
2016-12-18T06:07:29.621Z,96.88
2016-12-18T06:08:29.611Z,97.07
2016-12-18T06:09:29.598Z,96.78
2016-12-18T06:10:29.587Z,96.69
2016-12-18T06:11:29.574Z,96.69
2016-12-18T06:12:29.564Z,96.41
2016-12-18T06:13:29.549Z,96.88
2016-12-18T06:14:29.539Z,96.03
2016-12-18T06:15:29.528Z,96.03
2016-12-18T06:16:29.514Z,96.12
2016-12-18T06:17:29.502Z,96.12
2016-12-18T06:18:29.492Z,96.31
2016-12-18T06:19:29.480Z,96.22
2016-12-18T06:20:29.467Z,96.31
2016-12-18T06:21:29.455Z,95.74
2016-12-18T06:22:29.446Z,96.31
2016-12-18T06:23:29.431Z,95.74
2016-12-18T06:24:29.419Z,95.84
2016-12-18T06:25:29.410Z,96.12
2016-12-18T06:26:29.396Z,95.55
2016-12-18T06:27:29.384Z,95.84
2016-12-18T06:28:29.375Z,95.36
2016-12-18T06:29:29.369Z,95.36
2016-12-18T06:30:29.352Z,95.74
2016-12-18T06:31:29.337Z,95.84
2016-12-18T06:32:29.359Z,96.03
2016-12-18T06:33:29.348Z,95.84
2016-12-18T06:34:29.304Z,95.65
2016-12-18T06:35:29.293Z,95.84
2016-12-18T06:36:29.311Z,95.84
2016-12-18T06:37:29.268Z,95.84
2016-12-18T06:38:29.287Z,95.65
2016-12-18T06:39:29.244Z,95.84
2016-12-18T06:40:29.235Z,95.93
2016-12-18T06:41:29.221Z,95.65
2016-12-18T06:42:29.215Z,96.03
2016-12-18T06:43:29.198Z,95.84
2016-12-18T06:44:29.191Z,95.65
2016-12-18T06:45:29.175Z,95.65
2016-12-18T06:46:29.166Z,95.74
2016-12-18T06:47:29.152Z,96.03
2016-12-18T06:48:29.142Z,95.65
2016-12-18T06:49:29.129Z,95.74
2016-12-18T06:50:29.118Z,95.55
2016-12-18T06:51:29.105Z,95.36
2016-12-18T06:52:29.092Z,95.36
2016-12-18T06:53:29.082Z,95.27
2016-12-18T06:54:29.070Z,95.93
2016-12-18T06:55:29.059Z,95.46
2016-12-18T06:56:29.047Z,95.27
2016-12-18T06:57:29.051Z,94.89
2016-12-18T06:58:29.024Z,95.74
2016-12-18T06:59:29.014Z,95.46
2016-12-18T07:00:29.001Z,95.46
2016-12-18T07:01:28.988Z,95.46
2016-12-18T07:02:28.977Z,95.46
2016-12-18T07:03:28.965Z,95.55
2016-12-18T07:04:28.956Z,95.27
2016-12-18T07:05:28.951Z,95.65
2016-12-18T07:06:28.935Z,95.07
2016-12-18T07:07:28.920Z,94.7
2016-12-18T07:08:28.908Z,94.98
2016-12-18T07:09:28.896Z,95.07
2016-12-18T07:10:28.887Z,95.07
2016-12-18T07:11:28.875Z,95.07
2016-12-18T07:12:28.863Z,95.07
2016-12-18T07:13:28.851Z,94.98
2016-12-18T07:14:28.840Z,94.79
2016-12-18T07:15:28.827Z,94.98
2016-12-18T07:16:28.817Z,95.07
2016-12-18T07:17:28.807Z,94.89
2016-12-18T07:18:28.798Z,94.98
2016-12-18T07:19:28.785Z,95.27
2016-12-18T07:20:28.770Z,94.98
2016-12-18T07:21:28.761Z,95.36
2016-12-18T07:22:28.746Z,95.17
2016-12-18T07:23:28.737Z,94.37
2016-12-18T07:24:28.725Z,95.22
2016-12-18T07:25:28.714Z,95.17
2016-12-18T07:26:28.707Z,94.46
2016-12-18T07:27:28.692Z,94.46
2016-12-18T07:28:28.679Z,94.37
2016-12-18T07:29:28.667Z,94.6
2016-12-18T07:30:28.657Z,94.46
2016-12-18T07:31:28.644Z,94.65
2016-12-18T07:32:28.635Z,94.65
2016-12-18T07:33:28.621Z,94.46
2016-12-18T07:34:28.611Z,94.56
2016-12-18T07:35:28.603Z,94.56
2016-12-18T07:36:28.586Z,93.8
2016-12-18T07:37:28.578Z,93.7
2016-12-18T07:38:28.564Z,93.6
2016-12-18T07:39:28.556Z,94.23
2016-12-18T07:40:28.541Z,94.13
2016-12-18T07:41:28.531Z,93.89
2016-12-18T07:42:28.519Z,94.74
2016-12-18T07:43:28.508Z,94.37
2016-12-18T07:44:28.497Z,94.37
2016-12-18T07:45:28.485Z,94.37
2016-12-18T07:46:28.474Z,94.08
2016-12-18T07:47:28.462Z,94.74
2016-12-18T07:48:28.451Z,94.74
2016-12-18T07:49:28.439Z,94.37
2016-12-18T07:50:28.428Z,94.08
2016-12-18T07:51:28.416Z,93.89
2016-12-18T07:52:28.405Z,93.6
2016-12-18T07:53:28.396Z,93.89
2016-12-18T07:54:28.382Z,93.7
2016-12-18T07:55:28.371Z,94.18
2016-12-18T07:56:28.362Z,93.7
2016-12-18T07:57:28.349Z,93.7
2016-12-18T07:58:28.338Z,94.08
2016-12-18T07:59:28.327Z,94.27
2016-12-18T08:00:28.316Z,94.18
2016-12-18T08:01:28.305Z,94.56
2016-12-18T08:02:28.291Z,94.08
2016-12-18T08:03:28.280Z,94.37
2016-12-18T08:04:28.269Z,94.18
2016-12-18T08:05:28.259Z,94.37
2016-12-18T08:06:28.247Z,94.37
2016-12-18T08:07:28.235Z,95.22
2016-12-18T08:08:28.225Z,94.93
2016-12-18T08:09:28.212Z,94.93
2016-12-18T08:10:28.202Z,95.12
2016-12-18T08:11:28.190Z,94.65
2016-12-18T08:12:28.180Z,94.37
2016-12-18T08:13:28.169Z,94.56
2016-12-18T08:14:28.156Z,95.22
2016-12-18T08:15:28.148Z,95.31
2016-12-18T08:16:28.136Z,95.12
2016-12-18T08:17:28.123Z,95.03
2016-12-18T08:18:28.113Z,95.12
2016-12-18T08:19:28.102Z,95.12
2016-12-18T08:20:28.090Z,94.93
2016-12-18T08:21:28.081Z,95.41
2016-12-18T08:22:28.069Z,95.31
2016-12-18T08:23:28.057Z,95.22
2016-12-18T08:24:28.350Z,95.7
2016-12-18T08:25:28.035Z,95.12
2016-12-18T08:26:28.029Z,95.03
2016-12-18T08:27:28.013Z,95.03
2016-12-18T08:28:28.001Z,95.03
2016-12-18T08:29:27.991Z,94.93
2016-12-18T08:30:27.981Z,95.12
2016-12-18T08:31:27.969Z,95.22
2016-12-18T08:32:27.959Z,95.03
2016-12-18T08:33:27.947Z,95.12
2016-12-18T08:34:27.938Z,95.17
2016-12-18T08:35:27.924Z,94.65
2016-12-18T08:36:27.915Z,94.65
2016-12-18T08:37:27.904Z,94.08
2016-12-18T08:38:27.894Z,94.37
2016-12-18T08:39:27.881Z,94.27
2016-12-18T08:40:27.875Z,94.42
2016-12-18T08:41:27.860Z,94.6
2016-12-18T08:42:27.848Z,94.37
2016-12-18T08:43:27.839Z,94.84
2016-12-18T08:44:27.828Z,94.18
2016-12-18T08:45:27.819Z,94.27
2016-12-18T08:46:27.808Z,93.89
2016-12-18T08:47:28.097Z,94.23
2016-12-18T08:48:27.785Z,94.23
2016-12-18T08:49:27.776Z,94.23
2016-12-18T08:50:27.762Z,94.23
2016-12-18T08:51:27.782Z,93.84
2016-12-18T08:52:27.743Z,93.75
2016-12-18T08:53:27.729Z,93.75
2016-12-18T08:54:27.725Z,93.18
2016-12-18T08:55:27.707Z,93.37
2016-12-18T08:56:27.697Z,93.56
2016-12-18T08:57:27.688Z,93.37
2016-12-18T08:58:27.678Z,93.37
2016-12-18T08:59:27.666Z,93.37
2016-12-18T09:00:27.654Z,93.27
2016-12-18T09:01:27.643Z,93.37
2016-12-18T09:02:27.637Z,92.99
2016-12-18T09:03:27.625Z,93.27
2016-12-18T09:04:27.609Z,92.8
2016-12-18T09:05:27.600Z,92.51
2016-12-18T09:06:27.590Z,92.61
2016-12-18T09:07:27.580Z,92.9
2016-12-18T09:08:27.567Z,92.42
2016-12-18T09:09:27.558Z,91.94
2016-12-18T09:10:27.548Z,91.94
2016-12-18T09:11:27.536Z,92.61
2016-12-18T09:12:27.528Z,91.85
2016-12-18T09:13:27.517Z,92.04
2016-12-18T09:14:27.506Z,91.85
2016-12-18T09:15:27.497Z,91.94
2016-12-18T09:16:27.485Z,92.51
2016-12-18T09:17:27.473Z,92.32
2016-12-18T09:18:27.464Z,92.04
2016-12-18T09:19:27.453Z,92.42
2016-12-18T09:20:27.442Z,91.94
2016-12-18T09:21:27.431Z,91.85
2016-12-18T09:22:27.420Z,92.04
2016-12-18T09:23:27.411Z,91.75
2016-12-18T09:24:27.401Z,92.51
2016-12-18T09:25:27.392Z,92.42
2016-12-18T09:26:27.380Z,92.13
2016-12-18T09:27:27.369Z,92.61
2016-12-18T09:28:27.361Z,92.71
2016-12-18T09:29:27.350Z,92.51
2016-12-18T09:30:27.337Z,92.71
2016-12-18T09:31:27.330Z,92.71
2016-12-18T09:32:27.341Z,92.99
2016-12-18T09:33:27.308Z,92.99
2016-12-18T09:34:27.298Z,92.9
2016-12-18T09:35:27.284Z,92.8
2016-12-18T09:36:27.303Z,92.51
2016-12-18T09:37:27.264Z,92.51
2016-12-18T09:38:27.254Z,92.99
2016-12-18T09:39:27.245Z,92.99
2016-12-18T09:40:27.237Z,93.37
2016-12-18T09:41:27.224Z,93.37
2016-12-18T09:42:27.215Z,93.37
2016-12-18T09:43:27.204Z,92.9
2016-12-18T09:44:27.194Z,92.71
2016-12-18T09:45:27.485Z,92.99
2016-12-18T09:46:27.174Z,93.08
2016-12-18T09:47:27.161Z,92.9
2016-12-18T09:48:27.151Z,92.99
2016-12-18T09:49:27.146Z,92.71
2016-12-18T09:50:27.130Z,92.9
2016-12-18T09:51:27.122Z,92.42
2016-12-18T09:52:27.112Z,92.51
2016-12-18T09:53:27.101Z,92.61
2016-12-18T09:54:27.091Z,92.61
2016-12-18T09:55:27.080Z,92.42
2016-12-18T09:56:27.071Z,92.71
2016-12-18T09:57:27.060Z,91.89
2016-12-18T09:58:27.051Z,92.56
2016-12-18T09:59:27.042Z,92.66
2016-12-18T10:00:27.034Z,92.08
2016-12-18T10:01:27.019Z,92.18
2016-12-18T10:02:27.007Z,91.13
2016-12-18T10:03:26.998Z,91.42
2016-12-18T10:04:26.990Z,91.23
2016-12-18T10:05:26.996Z,90.85
2016-12-18T10:06:26.968Z,90.75
2016-12-18T10:07:26.959Z,91.23
2016-12-18T10:08:26.949Z,91.23
2016-12-18T10:09:26.938Z,90.94
2016-12-18T10:10:26.927Z,90.75
2016-12-18T10:11:26.918Z,90.66
2016-12-18T10:12:26.908Z,90.66
2016-12-18T10:13:26.896Z,90.94
2016-12-18T10:14:26.885Z,90.85
2016-12-18T10:15:26.877Z,91.04
2016-12-18T10:16:26.866Z,90.75
2016-12-18T10:17:26.856Z,90.85
2016-12-18T10:18:26.846Z,91.04
2016-12-18T10:19:27.139Z,90.75
2016-12-18T10:20:26.828Z,90.66
2016-12-18T10:21:26.819Z,90.75
2016-12-18T10:22:26.807Z,90.09
2016-12-18T10:23:26.799Z,90.28
2016-12-18T10:24:26.785Z,90.85
2016-12-18T10:25:26.780Z,90.75
2016-12-18T10:26:26.766Z,90.75
2016-12-18T10:27:26.759Z,90.66
2016-12-18T10:28:26.745Z,90.66
2016-12-18T10:29:26.735Z,89.8
2016-12-18T10:30:26.727Z,90.47
2016-12-18T10:31:26.716Z,90.47
2016-12-18T10:32:26.705Z,90
2016-12-18T10:33:26.695Z,89.8
2016-12-18T10:34:26.687Z,90.47
2016-12-18T10:35:26.675Z,90.37
2016-12-18T10:36:26.666Z,90.75
2016-12-18T10:37:26.656Z,90.56
2016-12-18T10:38:26.646Z,90.56
2016-12-18T10:39:26.636Z,90.75
2016-12-18T10:40:26.627Z,90.75
2016-12-18T10:41:26.614Z,90.47
2016-12-18T10:42:26.609Z,90.09
2016-12-18T10:43:26.596Z,90.56
2016-12-18T10:44:26.585Z,90.47
2016-12-18T10:45:26.577Z,90.47
2016-12-18T10:46:26.568Z,90.85
2016-12-18T10:47:26.556Z,90.94
2016-12-18T10:48:26.549Z,90.28
2016-12-18T10:49:26.537Z,90.33
2016-12-18T10:50:26.524Z,90.23
2016-12-18T10:51:26.515Z,90.42
2016-12-18T10:52:26.512Z,90.23
2016-12-18T10:53:26.497Z,90.42
2016-12-18T10:54:26.486Z,90.14
2016-12-18T10:55:26.479Z,90.23
2016-12-18T10:56:26.466Z,89.94
2016-12-18T10:57:26.456Z,90.23
2016-12-18T10:58:26.446Z,90.42
2016-12-18T10:59:26.437Z,90.33
2016-12-18T11:00:26.427Z,90.14
2016-12-18T11:01:26.420Z,90.33
2016-12-18T11:02:26.407Z,90.8
2016-12-18T11:03:26.399Z,90.52
2016-12-18T11:04:26.392Z,90.61
2016-12-18T11:05:26.377Z,90.52
2016-12-18T11:06:26.680Z,90.61
2016-12-18T11:07:26.362Z,91.18
2016-12-18T11:08:26.348Z,91.75
2016-12-18T11:09:26.339Z,90.7
2016-12-18T11:10:26.331Z,91.18
2016-12-18T11:11:26.320Z,91.08
2016-12-18T11:12:26.309Z,91.37
2016-12-18T11:13:26.303Z,90.8
2016-12-18T11:14:26.292Z,91.08
2016-12-18T11:15:26.282Z,91.56
2016-12-18T11:16:26.273Z,91.47
2016-12-18T11:17:26.263Z,91.37
2016-12-18T11:18:26.252Z,91.56
2016-12-18T11:19:26.244Z,91.47
2016-12-18T11:20:26.234Z,90.89
2016-12-18T11:21:26.225Z,91.37
2016-12-18T11:22:26.216Z,91.75
2016-12-18T11:23:26.206Z,91.47
2016-12-18T11:24:26.194Z,91.56
2016-12-18T11:25:26.186Z,91.94
2016-12-18T11:26:26.175Z,91.94
2016-12-18T11:27:26.164Z,91.85
2016-12-18T11:28:26.156Z,92.61
2016-12-18T11:29:26.146Z,92.7
2016-12-18T11:30:26.135Z,92.61
2016-12-18T11:31:26.128Z,92.8
2016-12-18T11:32:26.419Z,92.89
2016-12-18T11:33:26.108Z,93.08
2016-12-18T11:34:26.101Z,93.65
2016-12-18T11:35:26.089Z,93.37
2016-12-18T11:36:26.080Z,93.46
2016-12-18T11:37:26.072Z,93.65
2016-12-18T11:38:26.060Z,93.46
2016-12-18T11:39:26.049Z,93.75
2016-12-18T11:40:26.039Z,93.27
2016-12-18T11:41:26.035Z,93.65
2016-12-18T11:42:26.024Z,93.46
2016-12-18T11:43:26.015Z,93.84
2016-12-18T11:44:26.001Z,93.84
2016-12-18T11:45:25.991Z,94.32
2016-12-18T11:46:25.984Z,93.84
2016-12-18T11:47:25.973Z,93.94
2016-12-18T11:48:25.962Z,93.84
2016-12-18T11:49:25.953Z,93.65
2016-12-18T11:50:25.945Z,93.65
2016-12-18T11:51:25.936Z,93.46
2016-12-18T11:52:25.923Z,93.75
2016-12-18T11:53:25.918Z,93.55
2016-12-18T11:54:25.905Z,93.94
2016-12-18T11:55:25.897Z,93.37
2016-12-18T11:56:25.887Z,93.46
2016-12-18T11:57:25.879Z,93.46
2016-12-18T11:58:25.869Z,93.37
2016-12-18T11:59:25.886Z,92.8
2016-12-18T12:00:25.847Z,93.46
2016-12-18T12:01:25.840Z,93.46
2016-12-18T12:02:26.140Z,93.94
2016-12-18T12:03:25.819Z,93.94
2016-12-18T12:04:25.811Z,93.65
2016-12-18T12:05:25.801Z,93.37
2016-12-18T12:06:25.792Z,93.18
2016-12-18T12:07:26.085Z,93.46
2016-12-18T12:08:25.771Z,93.65
2016-12-18T12:09:25.762Z,93.75
2016-12-18T12:10:25.752Z,93.46
2016-12-18T12:11:25.748Z,93.65
2016-12-18T12:12:25.735Z,93.65
2016-12-18T12:13:25.726Z,93.55
2016-12-18T12:14:25.713Z,93.46
2016-12-18T12:15:25.734Z,93.18
2016-12-18T12:16:25.695Z,93.84
2016-12-18T12:17:25.688Z,93.84
2016-12-18T12:18:25.677Z,93.75
2016-12-18T12:19:25.665Z,93.65
2016-12-18T12:20:25.657Z,93.46
2016-12-18T12:21:25.648Z,93.65
2016-12-18T12:22:25.643Z,93.75
2016-12-18T12:23:25.631Z,93.84
2016-12-18T12:24:25.618Z,93.84
2016-12-18T12:25:25.608Z,94.03
2016-12-18T12:26:25.600Z,93.84
2016-12-18T12:27:25.589Z,94.22
2016-12-18T12:28:25.578Z,94.32
2016-12-18T12:29:25.573Z,94.22
2016-12-18T12:30:25.560Z,93.94
2016-12-18T12:31:25.551Z,94.22
2016-12-18T12:32:25.542Z,94.22
2016-12-18T12:33:25.531Z,94.22
2016-12-18T12:34:25.524Z,94.51
2016-12-18T12:35:25.511Z,94.32
2016-12-18T12:36:25.503Z,94.32
2016-12-18T12:37:25.493Z,94.22
2016-12-18T12:38:25.492Z,94.22
2016-12-18T12:39:25.473Z,94.32
2016-12-18T12:40:25.463Z,94.51
2016-12-18T12:41:25.451Z,94.13
2016-12-18T12:42:25.443Z,94.89
2016-12-18T12:43:25.436Z,94.6
2016-12-18T12:44:25.423Z,94.42
2016-12-18T12:45:25.416Z,94.22
2016-12-18T12:46:25.405Z,94.22
2016-12-18T12:47:25.394Z,94.32
2016-12-18T12:48:25.384Z,94.32
2016-12-18T12:49:25.378Z,94.32
2016-12-18T12:50:25.365Z,94.13
2016-12-18T12:51:25.360Z,93.94
2016-12-18T12:52:25.348Z,94.32
2016-12-18T12:53:25.338Z,94.03
2016-12-18T12:54:25.332Z,94.22